createdAt,value
2023-03-27T00:01:25.443Z,98862.00
2023-03-27T00:03:53.375Z,98863.84
2023-03-27T00:06:21.766Z,98869.34
2023-03-27T00:08:51.026Z,98875.00
2023-03-27T00:11:20.531Z,98883.16
2023-03-27T00:13:51.134Z,98892.31
2023-03-27T00:16:21.487Z,98891.03
2023-03-27T00:18:48.754Z,98895.94
2023-03-27T00:21:15.966Z,98908.72
2023-03-27T00:23:42.898Z,98915.41
2023-03-27T00:26:11.797Z,98920.47
2023-03-27T00:28:38.897Z,98913.91
2023-03-27T00:31:11.804Z,98925.03
2023-03-27T00:33:39.576Z,98941.53
2023-03-27T00:36:07.543Z,98945.75
2023-03-27T00:38:34.654Z,98956.88
2023-03-27T00:41:02.115Z,98958.25
2023-03-27T00:43:35.589Z,98966.56
2023-03-27T00:46:05.806Z,98976.72
2023-03-27T00:48:37.360Z,98996.63
2023-03-27T00:51:06.038Z,98992.53
2023-03-27T00:53:33.634Z,98992.88
2023-03-27T00:56:07.626Z,98998.56
2023-03-27T00:58:51.175Z,99002.75
2023-03-27T01:01:21.676Z,99008.97
2023-03-27T01:03:50.023Z,99010.31
2023-03-27T01:06:18.695Z,99009.22
2023-03-27T01:08:47.536Z,99017.25
2023-03-27T01:11:22.202Z,99021.44
2023-03-27T01:14:19.867Z,99022.81
2023-03-27T01:17:26.230Z,99030.81
2023-03-27T01:20:23.489Z,99040.31
2023-03-27T01:23:59.734Z,99032.28
2023-03-27T01:27:03.419Z,99042.91
2023-03-27T01:29:56.567Z,99045.28
2023-03-27T01:32:53.969Z,99051.78
2023-03-27T01:35:55.374Z,99058.78
2023-03-27T01:38:48.128Z,99063.94
2023-03-27T01:41:35.212Z,99068.31
2023-03-27T01:44:13.377Z,99080.22
2023-03-27T01:46:58.265Z,99074.47
2023-03-27T01:49:39.940Z,99088.00
2023-03-27T01:52:15.929Z,99091.84
2023-03-27T01:54:50.253Z,99100.78
2023-03-27T01:57:27.210Z,99108.03
2023-03-27T02:00:18.670Z,99118.97
2023-03-27T02:02:57.250Z,99126.25
2023-03-27T02:05:52.992Z,99139.47
2023-03-27T02:08:37.569Z,99153.81
2023-03-27T02:11:17.516Z,99149.72
2023-03-27T02:13:57.519Z,99143.94
2023-03-27T02:16:33.542Z,99150.41
2023-03-27T02:19:12.284Z,99156.00
2023-03-27T02:21:39.235Z,99161.66
2023-03-27T02:24:08.887Z,99167.28
2023-03-27T02:26:36.186Z,99176.53
2023-03-27T02:29:41.764Z,99175.22
2023-03-27T02:33:08.914Z,99179.19
2023-03-27T02:36:05.140Z,99199.66
2023-03-27T02:38:51.444Z,99201.66
2023-03-27T02:41:47.943Z,99205.63
2023-03-27T02:44:51.613Z,99210.25
2023-03-27T02:47:32.518Z,99222.97
2023-03-27T02:50:31.745Z,99230.38
2023-03-27T02:53:11.927Z,99248.88
2023-03-27T02:55:54.961Z,99233.53
2023-03-27T02:58:58.320Z,99255.47
2023-03-27T03:01:36.377Z,99260.59
2023-03-27T03:04:35.682Z,99272.78
2023-03-27T03:07:14.332Z,99276.06
2023-03-27T03:09:44.518Z,99287.28
2023-03-27T03:12:12.135Z,99286.78
2023-03-27T03:14:48.819Z,99293.38
2023-03-27T03:17:16.943Z,99295.53
2023-03-27T03:19:45.421Z,99316.13
2023-03-27T03:22:13.221Z,99317.56
2023-03-27T03:24:42.193Z,99324.31
2023-03-27T03:27:10.950Z,99332.72
2023-03-27T03:29:48.465Z,99343.22
2023-03-27T03:32:18.708Z,99349.28
2023-03-27T03:34:48.616Z,99349.91
2023-03-27T03:37:16.197Z,99369.16
2023-03-27T03:39:43.146Z,99375.88
2023-03-27T03:42:10.169Z,99386.22
2023-03-27T03:44:51.498Z,99404.31
2023-03-27T03:47:20.609Z,99415.63
2023-03-27T03:49:47.665Z,99439.97
2023-03-27T03:52:14.699Z,99427.50
2023-03-27T03:54:41.998Z,99448.09
2023-03-27T03:57:09.059Z,99451.16
2023-03-27T03:59:36.273Z,99457.72
2023-03-27T04:02:30.526Z,99461.63
2023-03-27T04:05:08.758Z,99466.66
2023-03-27T04:07:40.532Z,99464.47
2023-03-27T04:10:39.446Z,99472.84
2023-03-27T04:13:13.413Z,99483.81
2023-03-27T04:15:51.307Z,99491.16
2023-03-27T04:18:34.903Z,99496.91
2023-03-27T04:21:06.043Z,99505.22
2023-03-27T04:23:33.750Z,99511.75
2023-03-27T04:26:03.168Z,99514.69
2023-03-27T04:28:51.662Z,99527.31
2023-03-27T04:31:39.048Z,99529.41
2023-03-27T04:34:25.231Z,99537.59
2023-03-27T04:37:07.947Z,99546.47
2023-03-27T04:39:42.642Z,99557.13
2023-03-27T04:42:10.638Z,99555.63
2023-03-27T04:44:38.852Z,99566.16
2023-03-27T04:47:08.745Z,99568.91
2023-03-27T04:49:50.734Z,99573.50
2023-03-27T04:52:21.960Z,99586.00
2023-03-27T04:54:49.398Z,99588.78
2023-03-27T04:57:18.931Z,99601.09
2023-03-27T04:59:48.605Z,99600.38
2023-03-27T05:02:34.355Z,99606.78
2023-03-27T05:05:08.943Z,99614.00
2023-03-27T05:07:37.363Z,99622.00
2023-03-27T05:10:07.416Z,99624.78
2023-03-27T05:12:35.175Z,99642.53
2023-03-27T05:15:06.151Z,99649.59
2023-03-27T05:17:42.069Z,99649.75
2023-03-27T05:20:17.230Z,99663.16
2023-03-27T05:22:45.564Z,99664.97
2023-03-27T05:25:32.604Z,99679.09
2023-03-27T05:28:02.866Z,99683.78
2023-03-27T05:30:31.940Z,99676.88
2023-03-27T05:33:20.649Z,99689.34
2023-03-27T05:35:50.028Z,99695.69
2023-03-27T05:38:18.045Z,99705.38
2023-03-27T05:41:11.781Z,99707.31
2023-03-27T05:43:45.308Z,99711.06
2023-03-27T05:46:13.608Z,99712.88
2023-03-27T05:48:54.116Z,99724.47
2023-03-27T05:51:21.494Z,99722.81
2023-03-27T05:53:48.874Z,99729.88
2023-03-27T05:56:25.344Z,99744.00
2023-03-27T05:58:54.885Z,99744.16
2023-03-27T06:01:23.764Z,99755.63
2023-03-27T06:03:56.017Z,99767.94
2023-03-27T06:06:30.535Z,99767.94
2023-03-27T06:08:59.340Z,99770.56
2023-03-27T06:11:27.974Z,99778.44
2023-03-27T06:13:55.770Z,99786.34
2023-03-27T06:16:30.547Z,99786.34
2023-03-27T06:19:04.295Z,99795.91
2023-03-27T06:21:31.571Z,99805.47
2023-03-27T06:24:01.242Z,99813.06
2023-03-27T06:26:28.270Z,99818.19
2023-03-27T06:28:56.488Z,99826.81
2023-03-27T06:31:24.345Z,99832.59
2023-03-27T06:34:14.964Z,99841.06
2023-03-27T06:36:50.100Z,99845.91
2023-03-27T06:39:17.758Z,99853.25
2023-03-27T06:41:49.587Z,99852.19
2023-03-27T06:44:31.976Z,99864.91
2023-03-27T06:47:07.154Z,99865.34
2023-03-27T06:49:39.209Z,99878.91
2023-03-27T06:52:15.058Z,99875.75
2023-03-27T06:54:43.586Z,99877.84
2023-03-27T06:57:12.328Z,99885.03
2023-03-27T07:00:00.916Z,99883.22
2023-03-27T07:02:47.439Z,99892.81
2023-03-27T07:05:36.744Z,99893.66
2023-03-27T07:08:21.795Z,99903.22
2023-03-27T07:13:25.675Z,99916.50
2023-03-27T07:15:53.576Z,99917.88
2023-03-27T07:18:22.394Z,99926.22
2023-03-27T07:20:51.223Z,99933.69
2023-03-27T07:23:21.955Z,99934.22
2023-03-27T07:26:00.154Z,99939.91
2023-03-27T07:28:51.762Z,99947.94
2023-03-27T07:31:36.506Z,99955.28
2023-03-27T07:34:07.230Z,99964.31
2023-03-27T07:37:01.546Z,99959.44
2023-03-27T07:39:28.852Z,99971.38
2023-03-27T07:41:56.033Z,99978.03
2023-03-27T07:44:31.830Z,99977.44
2023-03-27T07:47:04.300Z,99982.16
2023-03-27T07:49:39.297Z,99979.63
2023-03-27T07:52:09.555Z,99991.00
2023-03-27T07:54:44.346Z,100002.34
2023-03-27T07:57:13.758Z,99999.53
2023-03-27T07:59:49.520Z,100002.00
2023-03-27T08:02:25.005Z,100008.75
2023-03-27T08:04:52.624Z,100003.25
2023-03-27T08:07:22.508Z,100001.41
2023-03-27T08:09:49.507Z,99999.41
2023-03-27T08:12:16.475Z,100008.63
2023-03-27T08:14:55.173Z,100011.44
2023-03-27T08:17:31.469Z,100001.97
2023-03-27T08:19:59.442Z,100006.59
2023-03-27T08:22:26.679Z,100016.09
2023-03-27T08:25:12.658Z,100018.69
2023-03-27T08:27:40.520Z,100031.13
2023-03-27T08:30:09.188Z,100023.69
2023-03-27T08:32:40.301Z,100035.66
2023-03-27T08:35:10.358Z,100034.38
2023-03-27T08:37:37.655Z,100033.91
2023-03-27T08:40:30.764Z,100040.88
2023-03-27T08:43:22.116Z,100045.47
2023-03-27T08:46:03.564Z,100048.94
2023-03-27T08:48:44.244Z,100053.47
2023-03-27T08:51:22.360Z,100056.47
2023-03-27T08:54:08.975Z,100067.44
2023-03-27T08:56:37.343Z,100066.66
2023-03-27T08:59:12.375Z,100065.88
2023-03-27T09:02:02.433Z,100070.41
2023-03-27T09:04:52.897Z,100090.06
2023-03-27T09:07:34.541Z,100082.22
2023-03-27T09:10:57.692Z,100086.00
2023-03-27T09:13:45.696Z,100078.75
2023-03-27T09:16:49.191Z,100090.91
2023-03-27T09:19:51.852Z,100088.97
2023-03-27T09:22:29.621Z,100090.81
2023-03-27T09:25:35.700Z,100093.28
2023-03-27T09:28:25.600Z,100094.66
2023-03-27T09:31:35.863Z,100097.66
2023-03-27T09:34:13.635Z,100093.66
2023-03-27T09:36:42.140Z,100100.13
2023-03-27T09:39:17.119Z,100091.19
2023-03-27T09:42:09.121Z,100096.31
2023-03-27T09:44:42.358Z,100098.97
2023-03-27T09:47:25.358Z,100096.47
2023-03-27T09:50:19.509Z,100100.47
2023-03-27T09:53:18.929Z,100097.81
2023-03-27T09:56:21.358Z,100100.94
2023-03-27T09:58:51.894Z,100103.28
2023-03-27T10:01:38.253Z,100091.94
2023-03-27T10:04:18.379Z,100099.22
2023-03-27T10:07:10.107Z,100095.72
2023-03-27T10:10:19.783Z,100103.69
2023-03-27T10:13:14.082Z,100107.84
2023-03-27T10:15:51.100Z,100113.84
2023-03-27T10:18:31.376Z,100113.84
2023-03-27T10:21:39.441Z,100116.50
2023-03-27T10:24:33.535Z,100119.50
2023-03-27T10:27:25.851Z,100120.97
2023-03-27T10:30:30.650Z,100125.47
2023-03-27T10:33:12.927Z,100127.63
2023-03-27T10:35:49.654Z,100121.44
2023-03-27T10:38:22.750Z,100114.44
2023-03-27T10:41:04.181Z,100122.88
2023-03-27T10:43:45.973Z,100121.69
2023-03-27T10:46:21.561Z,100137.16
2023-03-27T10:49:04.062Z,100126.16
2023-03-27T10:51:55.985Z,100127.97
2023-03-27T10:54:45.411Z,100135.00
2023-03-27T10:57:30.074Z,100139.69
2023-03-27T11:00:38.020Z,100139.03
2023-03-27T11:03:30.855Z,100136.72
2023-03-27T11:06:08.113Z,100139.72
2023-03-27T11:09:01.876Z,100143.53
2023-03-27T11:12:04.504Z,100144.66
2023-03-27T11:14:48.413Z,100144.78
2023-03-27T11:17:29.689Z,100145.88
2023-03-27T11:20:56.421Z,100143.72
2023-03-27T11:23:56.381Z,100134.66
2023-03-27T11:27:03.605Z,100133.25
2023-03-27T11:29:39.480Z,100138.22
2023-03-27T11:32:28.772Z,100138.22
2023-03-27T11:35:05.754Z,100137.63
2023-03-27T11:38:04.853Z,100142.34
2023-03-27T11:40:44.689Z,100151.91
2023-03-27T11:43:17.056Z,100163.97
2023-03-27T11:45:51.750Z,100164.19
2023-03-27T11:48:59.575Z,100165.75
2023-03-27T11:51:52.728Z,100183.75
2023-03-27T11:54:48.313Z,100197.59
2023-03-27T11:57:26.931Z,100202.59
2023-03-27T12:00:39.941Z,100203.44
2023-03-27T12:03:33.523Z,100203.44
2023-03-27T12:06:14.637Z,100201.78
2023-03-27T12:09:00.909Z,100198.59
2023-03-27T12:11:44.880Z,100202.44
2023-03-27T12:14:40.678Z,100193.81
2023-03-27T12:17:43.963Z,100193.25
2023-03-27T12:20:28.827Z,100191.56
2023-03-27T12:23:51.534Z,100184.00
2023-03-27T12:27:16.963Z,100186.53
2023-03-27T12:30:23.385Z,100192.94
2023-03-27T12:33:07.118Z,100201.22
2023-03-27T12:35:58.252Z,100192.69
2023-03-27T12:38:35.528Z,100187.72
2023-03-27T12:41:10.871Z,100205.88
2023-03-27T12:44:03.610Z,100196.94
2023-03-27T12:46:42.152Z,100200.94
2023-03-27T12:49:13.579Z,100197.50
2023-03-27T12:51:53.647Z,100197.56
2023-03-27T12:54:39.745Z,100197.94
2023-03-27T12:57:27.190Z,100179.47
2023-03-27T13:00:09.304Z,100191.09
2023-03-27T13:03:14.235Z,100195.72
2023-03-27T13:06:03.602Z,100194.09
2023-03-27T13:08:48.375Z,100184.44
2023-03-27T13:11:58.757Z,100190.94
2023-03-27T13:15:00.383Z,100193.81
2023-03-27T13:18:35.687Z,100192.69
2023-03-27T13:22:13.462Z,100215.00
2023-03-27T13:25:51.311Z,100205.03
2023-03-27T13:28:50.606Z,100205.22
2023-03-27T13:31:56.709Z,100216.72
2023-03-27T13:34:38.381Z,100212.06
2023-03-27T13:37:11.784Z,100215.25
2023-03-27T13:39:58.683Z,100221.22
2023-03-27T13:42:50.358Z,100219.88
2023-03-27T13:45:26.449Z,100222.19
2023-03-27T13:49:07.740Z,100231.19
2023-03-27T13:52:06.894Z,100233.50
2023-03-27T13:55:00.660Z,100230.50
2023-03-27T13:58:09.312Z,100222.53
2023-03-27T14:00:59.541Z,100230.41
2023-03-27T14:04:09.041Z,100220.66
2023-03-27T14:07:13.822Z,100227.84
2023-03-27T14:10:33.127Z,100226.31
2023-03-27T14:13:36.500Z,100222.78
2023-03-27T14:16:37.474Z,100203.13
2023-03-27T14:20:06.619Z,100218.75
2023-03-27T14:22:53.327Z,100225.28
2023-03-27T14:25:43.725Z,100267.06
2023-03-27T14:28:51.296Z,100257.19
2023-03-27T14:31:35.200Z,100266.25
2023-03-27T14:34:24.737Z,100254.53
2023-03-27T14:37:36.326Z,100265.91
2023-03-27T14:40:33.027Z,100258.44
2023-03-27T14:43:07.165Z,100253.75
2023-03-27T14:45:40.075Z,100257.78
2023-03-27T14:48:22.875Z,100256.09
2023-03-27T14:50:54.722Z,100265.25
2023-03-27T14:53:28.284Z,100263.25
2023-03-27T14:56:37.416Z,100258.41
2023-03-27T14:59:29.852Z,100263.06
2023-03-27T15:02:13.408Z,100264.06
2023-03-27T15:04:40.809Z,100262.09
2023-03-27T15:07:21.576Z,100268.72
2023-03-27T15:10:28.018Z,100261.75
2023-03-27T15:13:10.531Z,100256.44
2023-03-27T15:15:44.155Z,100251.94
2023-03-27T15:18:24.532Z,100249.81
2023-03-27T15:20:53.917Z,100253.78
2023-03-27T15:23:33.529Z,100247.13
2023-03-27T15:26:11.971Z,100252.09
2023-03-27T15:29:01.133Z,100244.13
2023-03-27T15:31:30.058Z,100245.44
2023-03-27T15:34:45.909Z,100247.59
2023-03-27T15:37:23.237Z,100245.09
2023-03-27T15:40:10.948Z,100249.69
2023-03-27T15:42:51.444Z,100250.81
2023-03-27T15:45:34.156Z,100247.59
2023-03-27T15:48:28.943Z,100246.53
2023-03-27T15:51:01.700Z,100248.69
2023-03-27T15:53:38.312Z,100250.13
2023-03-27T15:56:28.383Z,100251.81
2023-03-27T15:59:04.914Z,100255.91
2023-03-27T16:01:52.163Z,100266.88
2023-03-27T16:04:36.213Z,100256.03
2023-03-27T16:07:18.954Z,100256.31
2023-03-27T16:10:02.817Z,100245.84
2023-03-27T16:12:56.909Z,100256.31
2023-03-27T16:15:38.877Z,100261.28
2023-03-27T16:18:36.735Z,100250.16
2023-03-27T16:21:15.151Z,100248.41
2023-03-27T16:23:43.869Z,100255.19
2023-03-27T16:26:26.490Z,100259.91
2023-03-27T16:29:05.006Z,100269.91
2023-03-27T16:31:32.030Z,100259.34
2023-03-27T16:33:59.828Z,100260.41
2023-03-27T16:36:32.510Z,100275.19
2023-03-27T16:38:59.657Z,100270.22
2023-03-27T16:41:26.634Z,100277.38
2023-03-27T16:43:53.559Z,100281.19
2023-03-27T16:46:26.661Z,100292.31
2023-03-27T16:48:54.801Z,100291.31
2023-03-27T16:51:24.612Z,100292.31
2023-03-27T16:53:52.843Z,100310.06
2023-03-27T16:56:20.739Z,100308.19
2023-03-27T16:58:48.487Z,100303.88
2023-03-27T17:01:16.166Z,100309.34
2023-03-27T17:03:43.942Z,100307.47
2023-03-27T17:06:12.756Z,100304.47
2023-03-27T17:08:39.817Z,100315.72
2023-03-27T17:11:13.504Z,100322.66
2023-03-27T17:13:43.396Z,100329.59
2023-03-27T17:16:11.441Z,100335.53
2023-03-27T17:18:38.650Z,100330.69
2023-03-27T17:21:05.925Z,100349.06
2023-03-27T17:23:33.203Z,100354.84
2023-03-27T17:26:03.850Z,100350.03
2023-03-27T17:28:32.561Z,100350.31
2023-03-27T17:31:04.613Z,100359.44
2023-03-27T17:33:33.257Z,100360.59
2023-03-27T17:36:00.882Z,100368.19
2023-03-27T17:38:28.452Z,100368.63
2023-03-27T17:40:55.630Z,100369.78
2023-03-27T17:43:22.593Z,100374.38
2023-03-27T17:45:51.006Z,100379.03
2023-03-27T17:48:18.862Z,100373.22
2023-03-27T17:50:58.018Z,100382.44
2023-03-27T17:53:34.538Z,100383.72
2023-03-27T17:56:02.146Z,100393.13
2023-03-27T17:58:29.079Z,100395.41
2023-03-27T18:00:56.342Z,100405.81
2023-03-27T18:03:23.985Z,100411.88
2023-03-27T18:05:52.106Z,100411.47
2023-03-27T18:08:19.930Z,100421.84
2023-03-27T18:10:50.498Z,100426.03
2023-03-27T18:13:18.926Z,100432.44
2023-03-27T18:15:46.511Z,100440.03
2023-03-27T18:18:13.466Z,100440.31
2023-03-27T18:20:41.112Z,100447.03
2023-03-27T18:23:08.609Z,100448.47
2023-03-27T18:25:35.739Z,100460.34
2023-03-27T18:28:03.376Z,100464.25
2023-03-27T18:30:32.353Z,100467.47
2023-03-27T18:32:59.440Z,100460.81
2023-03-27T18:35:26.469Z,100466.41
2023-03-27T18:37:53.412Z,100467.28
2023-03-27T18:40:20.939Z,100478.16
2023-03-27T18:42:48.066Z,100480.41
2023-03-27T18:45:16.845Z,100482.66
2023-03-27T18:47:44.864Z,100484.88
2023-03-27T18:50:14.289Z,100489.66
2023-03-27T18:52:42.294Z,100491.03
2023-03-27T18:55:11.002Z,100490.47
2023-03-27T18:57:38.370Z,100490.78
2023-03-27T19:00:15.003Z,100486.88
2023-03-27T19:02:42.666Z,100488.97
2023-03-27T19:05:10.491Z,100483.28
2023-03-27T19:07:37.698Z,100480.75
2023-03-27T19:10:12.766Z,100489.00
2023-03-27T19:12:39.917Z,100493.59
2023-03-27T19:15:25.709Z,100492.19
2023-03-27T19:18:16.190Z,100493.19
2023-03-27T19:21:02.052Z,100504.03
2023-03-27T19:23:42.751Z,100513.38
2023-03-27T19:26:13.351Z,100520.59
2023-03-27T19:28:43.953Z,100518.25
2023-03-27T19:31:13.459Z,100528.25
2023-03-27T19:33:42.787Z,100523.25
2023-03-27T19:36:10.372Z,100522.56
2023-03-27T19:38:38.501Z,100528.94
2023-03-27T19:41:09.968Z,100530.06
2023-03-27T19:43:40.308Z,100531.16
2023-03-27T19:46:16.386Z,100532.28
2023-03-27T19:48:45.634Z,100534.22
2023-03-27T19:51:22.967Z,100542.41
2023-03-27T19:53:51.760Z,100538.38
2023-03-27T19:56:22.419Z,100542.25
2023-03-27T19:58:49.456Z,100544.38
2023-03-27T20:01:19.683Z,100537.81
2023-03-27T20:03:47.391Z,100548.63
2023-03-27T20:06:18.783Z,100561.44
2023-03-27T20:08:46.247Z,100560.03
2023-03-27T20:11:15.728Z,100550.00
2023-03-27T20:13:55.614Z,100555.56
2023-03-27T20:16:26.210Z,100556.09
2023-03-27T20:18:55.489Z,100559.94
2023-03-27T20:21:24.724Z,100561.19
2023-03-27T20:23:55.606Z,100559.78
2023-03-27T20:26:39.102Z,100561.00
2023-03-27T20:29:20.169Z,100556.09
2023-03-27T20:31:48.038Z,100558.19
2023-03-27T20:34:19.029Z,100563.03
2023-03-27T20:36:46.468Z,100559.69
2023-03-27T20:39:44.464Z,100566.09
2023-03-27T20:42:17.308Z,100558.53
2023-03-27T20:44:46.344Z,100562.41
2023-03-27T20:47:15.001Z,100567.13
2023-03-27T20:49:45.507Z,100564.72
2023-03-27T20:52:16.945Z,100570.28
2023-03-27T20:54:44.245Z,100574.97
2023-03-27T20:57:12.883Z,100582.19
2023-03-27T20:59:39.890Z,100576.31
2023-03-27T21:02:07.036Z,100579.34
2023-03-27T21:04:34.168Z,100580.56
2023-03-27T21:07:01.155Z,100585.28
2023-03-27T21:09:28.141Z,100587.31
2023-03-27T21:11:56.193Z,100585.91
2023-03-27T21:14:23.369Z,100590.59
2023-03-27T21:16:50.469Z,100589.16
2023-03-27T21:19:20.537Z,100589.56
2023-03-27T21:21:47.832Z,100590.78
2023-03-27T21:24:15.400Z,100591.97
2023-03-27T21:26:42.466Z,100585.44
2023-03-27T21:29:10.735Z,100585.81
2023-03-27T21:31:41.451Z,100592.28
2023-03-27T21:34:08.708Z,100596.97
2023-03-27T21:36:37.773Z,100591.09
2023-03-27T21:39:05.627Z,100600.13
2023-03-27T21:41:32.731Z,100602.16
2023-03-27T21:43:59.696Z,100607.69
2023-03-27T21:46:26.790Z,100610.53
2023-03-27T21:48:53.881Z,100607.34
2023-03-27T21:51:20.939Z,100610.34
2023-03-27T21:53:48.062Z,100610.59
2023-03-27T21:56:15.264Z,100614.41
2023-03-27T21:58:42.271Z,100615.50
2023-03-27T22:01:09.280Z,100612.13
2023-03-27T22:03:36.228Z,100613.38
2023-03-27T22:06:11.802Z,100619.69
2023-03-27T22:08:41.134Z,100618.16
2023-03-27T22:11:08.579Z,100623.69
2023-03-27T22:13:37.264Z,100623.78
2023-03-27T22:16:13.379Z,100629.31
2023-03-27T22:18:41.264Z,100630.25
2023-03-27T22:21:22.225Z,100630.50
2023-03-27T22:23:50.856Z,100635.03
2023-03-27T22:26:20.332Z,100638.78
2023-03-27T22:28:47.792Z,100648.44
2023-03-27T22:31:14.828Z,100656.59
2023-03-27T22:33:41.916Z,100655.06
2023-03-27T22:36:11.698Z,100656.94
2023-03-27T22:38:39.493Z,100661.50
2023-03-27T22:41:08.993Z,100659.94
2023-03-27T22:43:36.520Z,100664.47
2023-03-27T22:46:13.637Z,100669.03
2023-03-27T22:48:41.275Z,100660.44
2023-03-27T22:51:10.346Z,100672.84
2023-03-27T22:53:38.202Z,100673.09
2023-03-27T22:56:07.178Z,100681.13
2023-03-27T22:58:34.442Z,100686.50
2023-03-27T23:01:04.391Z,100680.50
2023-03-27T23:03:31.473Z,100692.94
2023-03-27T23:05:58.685Z,100694.88
2023-03-27T23:08:27.744Z,100691.50
2023-03-27T23:11:04.474Z,100696.06
2023-03-27T23:13:34.605Z,100702.28
2023-03-27T23:16:01.816Z,100699.75
2023-03-27T23:18:29.091Z,100698.19
2023-03-27T23:21:02.528Z,100708.00
2023-03-27T23:23:31.630Z,100698.44
2023-03-27T23:25:59.115Z,100706.44
2023-03-27T23:28:30.283Z,100711.81
2023-03-27T23:31:01.073Z,100713.00
2023-03-27T23:33:32.943Z,100714.88
2023-03-27T23:36:07.363Z,100708.91
2023-03-27T23:38:35.130Z,100713.47
2023-03-27T23:41:02.904Z,100715.38
2023-03-27T23:43:31.184Z,100725.16
2023-03-27T23:45:59.456Z,100720.84
2023-03-27T23:48:28.540Z,100718.34
2023-03-27T23:50:57.039Z,100719.38
2023-03-27T23:53:27.632Z,100723.94
2023-03-27T23:55:56.578Z,100724.06
2023-03-27T23:58:28.521Z,100729.31
